createdAt,value
2022-07-26T00:02:47.661Z,27.57
2022-07-26T00:07:49.989Z,27.48
2022-07-26T00:12:51.392Z,27.52
2022-07-26T00:17:52.800Z,27.55
2022-07-26T00:22:54.226Z,27.51
2022-07-26T00:27:55.721Z,27.54
2022-07-26T00:32:57.122Z,27.51
2022-07-26T00:37:58.581Z,27.49
2022-07-26T00:42:59.989Z,27.43
2022-07-26T00:48:01.482Z,27.42
2022-07-26T00:53:02.895Z,27.46
2022-07-26T00:58:04.316Z,27.41
2022-07-26T01:03:06.065Z,27.47
2022-07-26T01:08:07.480Z,27.47
2022-07-26T01:13:08.985Z,27.43
2022-07-26T01:18:10.391Z,27.47
2022-07-26T01:23:11.805Z,27.43
2022-07-26T01:28:19.871Z,27.47
2022-07-26T01:33:21.745Z,27.38
2022-07-26T01:38:23.145Z,27.42
2022-07-26T01:43:24.557Z,27.40
2022-07-26T01:48:26.372Z,27.46
2022-07-26T01:53:27.858Z,27.48
2022-07-26T01:58:29.325Z,27.45
2022-07-26T02:03:30.726Z,27.41
2022-07-26T02:08:32.183Z,27.40
2022-07-26T02:13:39.766Z,27.44
2022-07-26T02:18:42.804Z,27.46
2022-07-26T02:23:44.233Z,27.43
2022-07-26T02:28:45.673Z,27.42
2022-07-26T02:33:47.079Z,27.42
2022-07-26T02:38:48.477Z,27.46
2022-07-26T02:43:49.917Z,27.43
2022-07-26T02:48:51.412Z,27.44
2022-07-26T02:53:53.863Z,27.43
2022-07-26T02:58:55.452Z,27.45
2022-07-26T03:03:56.934Z,27.43
2022-07-26T03:08:58.368Z,27.49
2022-07-26T03:13:59.771Z,27.48
2022-07-26T03:19:01.443Z,27.50
2022-07-26T03:24:02.858Z,27.44
2022-07-26T03:29:04.269Z,27.48
2022-07-26T03:34:05.999Z,27.51
2022-07-26T03:39:07.658Z,27.46
2022-07-26T03:44:09.497Z,27.45
2022-07-26T03:49:16.374Z,27.46
2022-07-26T03:54:18.459Z,27.50
2022-07-26T03:59:19.942Z,27.51
2022-07-26T04:04:25.457Z,27.46
2022-07-26T04:09:28.013Z,27.48
2022-07-26T04:14:29.434Z,27.46
2022-07-26T04:19:30.838Z,27.42
2022-07-26T04:24:32.263Z,27.42
2022-07-26T04:29:33.763Z,27.45
2022-07-26T04:34:35.165Z,27.43
2022-07-26T04:39:36.576Z,27.47
2022-07-26T04:44:38.300Z,27.43
2022-07-26T04:49:39.709Z,27.42
2022-07-26T04:54:41.130Z,27.37
2022-07-26T04:59:42.540Z,27.39
2022-07-26T05:04:44.153Z,27.41
2022-07-26T05:09:45.564Z,27.40
2022-07-26T05:14:46.970Z,27.41
2022-07-26T05:19:49.272Z,27.43
2022-07-26T05:24:50.916Z,27.37
2022-07-26T05:29:52.381Z,27.38
2022-07-26T05:34:53.849Z,27.40
2022-07-26T05:39:55.299Z,27.37
2022-07-26T05:44:56.793Z,27.36
2022-07-26T05:49:59.096Z,27.41
2022-07-26T05:55:00.498Z,27.34
2022-07-26T06:00:02.014Z,27.33
2022-07-26T06:05:03.581Z,27.41
2022-07-26T06:10:05.458Z,27.42
2022-07-26T06:15:14.962Z,27.34
2022-07-26T06:20:17.180Z,27.41
2022-07-26T06:25:18.717Z,27.30
2022-07-26T06:30:20.121Z,27.27
2022-07-26T06:35:21.609Z,27.38
2022-07-26T06:40:23.018Z,27.26
2022-07-26T06:45:24.465Z,27.28
2022-07-26T06:50:25.956Z,27.36
2022-07-26T06:55:27.429Z,27.32
2022-07-26T07:00:28.848Z,27.29
2022-07-26T07:05:31.200Z,27.32
2022-07-26T07:10:32.950Z,27.29
2022-07-26T07:15:36.374Z,27.30
2022-07-26T07:20:38.923Z,27.36
2022-07-26T07:25:40.328Z,27.24
2022-07-26T07:30:41.770Z,27.28
2022-07-26T07:35:43.229Z,27.31
2022-07-26T07:40:44.735Z,27.26
2022-07-26T07:45:48.482Z,27.55
2022-07-26T07:50:50.409Z,27.66
2022-07-26T07:55:51.810Z,27.73
2022-07-26T08:00:56.849Z,27.57
2022-07-26T08:05:58.346Z,27.78
2022-07-26T08:10:59.760Z,27.86
2022-07-26T08:16:01.285Z,27.99
2022-07-26T08:21:03.626Z,28.10
2022-07-26T08:26:06.998Z,28.26
2022-07-26T08:31:08.621Z,28.28
2022-07-26T08:36:10.078Z,28.23
2022-07-26T08:41:11.568Z,28.25
2022-07-26T08:46:13.213Z,28.30
2022-07-26T08:51:14.646Z,28.33
2022-07-26T08:56:16.041Z,28.24
2022-07-26T09:01:17.539Z,28.28
2022-07-26T09:06:20.504Z,28.35
2022-07-26T09:11:24.546Z,28.26
2022-07-26T09:16:26.192Z,28.16
2022-07-26T09:21:32.360Z,28.05
2022-07-26T09:26:33.775Z,28.33
2022-07-26T09:31:36.051Z,28.32
2022-07-26T09:36:51.129Z,28.43
2022-07-26T09:42:17.535Z,28.33
2022-07-26T09:47:13.944Z,28.21
2022-07-26T09:52:16.870Z,28.28
2022-07-26T09:57:19.668Z,28.43
2022-07-26T10:02:21.171Z,28.39
2022-07-26T10:07:23.376Z,28.45
2022-07-26T10:12:30.084Z,28.49
2022-07-26T10:17:37.770Z,28.40
2022-07-26T10:22:44.207Z,28.53
2022-07-26T10:27:48.969Z,28.55
2022-07-26T10:33:00.238Z,28.54
2022-07-26T10:38:06.013Z,28.39
2022-07-26T10:43:38.953Z,28.37
2022-07-26T10:48:33.907Z,28.51
2022-07-26T10:53:35.366Z,28.51
2022-07-26T10:58:42.222Z,28.48
2022-07-26T11:03:43.838Z,28.49
2022-07-26T11:08:48.373Z,28.55
2022-07-26T11:13:49.946Z,28.59
2022-07-26T11:18:52.237Z,28.58
2022-07-26T11:23:55.965Z,28.45
2022-07-26T11:29:06.121Z,28.51
2022-07-26T11:34:11.378Z,28.51
2022-07-26T11:39:14.734Z,28.47
2022-07-26T11:44:17.215Z,28.55
2022-07-26T11:49:20.293Z,28.47
2022-07-26T11:54:28.579Z,28.51
2022-07-26T11:59:34.004Z,28.56
2022-07-26T12:04:39.756Z,28.47
2022-07-26T12:09:51.176Z,28.53
2022-07-26T12:14:56.888Z,28.49
2022-07-26T12:20:14.728Z,28.46
2022-07-26T12:25:27.795Z,28.50
2022-07-26T12:30:30.807Z,28.63
2022-07-26T12:35:35.195Z,28.60
2022-07-26T12:40:42.610Z,28.67
2022-07-26T12:45:44.065Z,28.57
2022-07-26T12:50:45.581Z,28.56
2022-07-26T12:55:46.992Z,28.55
2022-07-26T13:00:48.430Z,28.54
2022-07-26T13:05:49.858Z,28.58
2022-07-26T13:10:52.733Z,28.64
2022-07-26T13:15:56.947Z,28.62
2022-07-26T13:20:58.358Z,28.40
2022-07-26T13:25:59.768Z,28.67
2022-07-26T13:31:01.344Z,28.69
2022-07-26T13:36:02.875Z,28.65
2022-07-26T13:41:04.337Z,28.66
2022-07-26T13:46:06.055Z,28.48
2022-07-26T13:51:07.933Z,28.39
2022-07-26T13:56:09.402Z,28.40
2022-07-26T14:01:10.915Z,28.52
2022-07-26T14:06:13.442Z,28.46
2022-07-26T14:11:14.846Z,28.38
2022-07-26T14:16:16.346Z,28.30
2022-07-26T14:21:17.771Z,28.29
2022-07-26T14:26:19.286Z,28.19
2022-07-26T14:31:20.778Z,28.22
2022-07-26T14:36:22.239Z,28.21
2022-07-26T14:41:23.674Z,28.22
2022-07-26T14:46:25.152Z,28.14
2022-07-26T14:51:26.637Z,28.17
2022-07-26T14:56:28.069Z,28.13
2022-07-26T15:01:29.557Z,28.13
2022-07-26T15:06:30.978Z,28.08
2022-07-26T15:11:32.383Z,28.11
2022-07-26T15:16:33.923Z,28.05
2022-07-26T15:21:35.407Z,28.00
2022-07-26T15:26:36.809Z,27.98
2022-07-26T15:31:38.227Z,27.92
2022-07-26T15:36:39.681Z,27.86
2022-07-26T15:41:41.086Z,27.95
2022-07-26T15:46:45.529Z,27.77
2022-07-26T15:51:47.387Z,27.91
2022-07-26T15:56:49.344Z,27.86
2022-07-26T16:01:50.858Z,27.94
2022-07-26T16:06:52.342Z,27.81
2022-07-26T16:11:53.845Z,27.83
2022-07-26T16:16:56.421Z,27.82
2022-07-26T16:21:57.872Z,27.82
2022-07-26T16:26:59.359Z,27.74
2022-07-26T16:32:00.823Z,27.74
2022-07-26T16:37:02.578Z,27.79
2022-07-26T16:42:07.130Z,27.74
2022-07-26T16:47:08.959Z,27.86
2022-07-26T16:52:10.413Z,27.79
2022-07-26T16:57:11.824Z,27.69
2022-07-26T17:02:13.326Z,27.78
2022-07-26T17:07:24.980Z,27.67
2022-07-26T17:12:27.418Z,27.70
2022-07-26T17:17:28.814Z,27.69
2022-07-26T17:22:30.215Z,27.70
2022-07-26T17:27:31.639Z,27.63
2022-07-26T17:32:33.168Z,27.77
2022-07-26T17:37:37.435Z,27.65
2022-07-26T17:42:39.153Z,27.58
2022-07-26T17:47:41.351Z,27.64
2022-07-26T17:52:42.837Z,27.62
2022-07-26T17:57:44.257Z,27.58
2022-07-26T18:02:45.950Z,27.63
2022-07-26T18:07:47.441Z,27.62
2022-07-26T18:12:48.863Z,27.71
2022-07-26T18:17:50.273Z,27.63
2022-07-26T18:22:51.910Z,27.78
2022-07-26T18:27:53.760Z,27.78
2022-07-26T18:32:56.170Z,27.61
2022-07-26T18:37:57.621Z,27.62
2022-07-26T18:42:59.081Z,27.60
2022-07-26T18:48:01.147Z,27.57
2022-07-26T18:53:03.820Z,27.58
2022-07-26T18:58:07.694Z,27.66
2022-07-26T19:03:10.011Z,27.64
2022-07-26T19:08:11.417Z,27.56
2022-07-26T19:13:12.833Z,27.64
2022-07-26T19:18:17.425Z,27.64
2022-07-26T19:23:18.831Z,27.59
2022-07-26T19:28:20.232Z,27.53
2022-07-26T19:33:21.647Z,27.66
2022-07-26T19:38:23.050Z,27.66
2022-07-26T19:43:24.451Z,27.64
2022-07-26T19:48:25.877Z,27.59
2022-07-26T19:53:27.275Z,27.64
2022-07-26T19:58:29.081Z,27.64
2022-07-26T20:03:31.658Z,27.64
2022-07-26T20:08:33.069Z,27.63
2022-07-26T20:13:35.389Z,27.62
2022-07-26T20:18:36.849Z,27.65
2022-07-26T20:23:38.263Z,27.62
2022-07-26T20:28:40.248Z,27.64
2022-07-26T20:33:41.714Z,27.62
2022-07-26T20:38:44.357Z,27.65
2022-07-26T20:43:48.084Z,27.61
2022-07-26T20:48:49.532Z,27.62
2022-07-26T20:53:50.969Z,27.61
2022-07-26T20:58:52.381Z,27.60
2022-07-26T21:03:53.950Z,27.61
2022-07-26T21:08:55.459Z,27.60
2022-07-26T21:13:56.981Z,27.55
2022-07-26T21:18:58.429Z,27.54
2022-07-26T21:23:59.830Z,27.60
2022-07-26T21:29:01.230Z,27.55
2022-07-26T21:34:02.801Z,27.47
2022-07-26T21:39:04.330Z,27.49
2022-07-26T21:44:05.970Z,27.53
2022-07-26T21:49:07.520Z,27.55
2022-07-26T21:54:09.070Z,27.56
2022-07-26T21:59:10.744Z,27.52
2022-07-26T22:04:12.385Z,27.43
2022-07-26T22:09:14.128Z,27.42
2022-07-26T22:14:17.431Z,27.42
2022-07-26T22:19:19.031Z,27.41
2022-07-26T22:24:20.433Z,27.24
2022-07-26T22:29:21.839Z,27.21
2022-07-26T22:34:23.249Z,27.35
2022-07-26T22:39:24.665Z,27.38
2022-07-26T22:44:26.116Z,27.18
2022-07-26T22:49:27.738Z,27.22
2022-07-26T22:54:29.187Z,27.21
2022-07-26T22:59:30.603Z,27.25
2022-07-26T23:04:32.058Z,27.18
2022-07-26T23:09:33.553Z,27.20
2022-07-26T23:14:35.011Z,27.26
2022-07-26T23:19:36.436Z,27.25
2022-07-26T23:24:37.877Z,27.15
2022-07-26T23:29:42.285Z,27.07
2022-07-26T23:34:43.738Z,27.11
2022-07-26T23:39:45.142Z,27.21
2022-07-26T23:44:46.575Z,27.04
2022-07-26T23:49:47.973Z,27.00
2022-07-26T23:54:49.449Z,27.01
2022-07-26T23:59:50.891Z,27.02
